Time;durP1;ratioP1;P1;durP2;ratioP2;P2;SDS_P1;SDS_P2;PMS_P1;PMS_P2;Temp;Humidity;BMP_temperature;BMP_pressure;BME280_temperature;BME280_humidity;BME280_pressure;Samples;Min_cycle;Max_cycle;Signal;HPM_P1;HPM_P2
2022/12/30 00:00:07;;;;;;;127.85;122.45;;;9.90;98.10;;;;;;5009706;28;20429;-82
2022/12/30 00:02:32;;;;;;;122.75;117.55;;;9.90;98.10;;;;;;5026678;28;20025;-82
2022/12/30 00:04:58;;;;;;;126.25;120.95;;;9.90;98.10;;;;;;5009555;28;20017;-82
2022/12/30 00:07:24;;;;;;;126.25;120.85;;;9.90;98.20;;;;;;5009621;28;20045;-82
2022/12/30 00:09:50;;;;;;;131.40;125.80;;;10.00;98.20;;;;;;5009715;28;20132;-81
2022/12/30 00:34:36;;;;;;;143.45;137.15;;;10.00;98.20;;;;;;5027893;28;20095;-82
2022/12/30 00:37:02;;;;;;;144.52;138.23;;;10.00;98.20;;;;;;5025988;28;20036;-82
2022/12/30 00:39:28;;;;;;;;;;;10.00;98.20;;;;;;5010212;28;20108;-82
2022/12/30 00:44:38;;;;;;;151.77;145.15;;;10.00;98.20;;;;;;5012870;28;20036;-82
2022/12/30 00:47:06;;;;;;;155.82;149.13;;;10.00;98.20;;;;;;4993559;28;20026;-82
2022/12/30 00:57:45;;;;;;;156.68;149.88;;;10.00;98.30;;;;;;5030439;28;20040;-82
2022/12/30 01:00:12;;;;;;;156.13;149.43;;;10.00;98.30;;;;;;5029766;28;20108;-81
2022/12/30 01:02:38;;;;;;;157.10;150.30;;;10.00;98.30;;;;;;5029918;28;20030;-83
2022/12/30 01:05:05;;;;;;;158.93;152.02;;;10.10;98.30;;;;;;5029780;28;20465;-82
2022/12/30 01:07:31;;;;;;;151.02;144.52;;;10.10;98.30;;;;;;5029752;28;20469;-83
2022/12/30 01:09:57;;;;;;;150.45;143.95;;;10.10;98.50;;;;;;5029443;28;20455;-82
2022/12/30 01:12:23;;;;;;;170.07;162.77;;;10.20;98.40;;;;;;5029644;28;20044;-82
2022/12/30 01:14:51;;;;;;;170.68;163.32;;;10.20;98.40;;;;;;4996495;28;20056;-83
2022/12/30 01:17:20;;;;;;;180.00;172.40;;;10.20;98.20;;;;;;5029907;28;20025;-83
2022/12/30 01:19:46;;;;;;;166.10;158.90;;;10.20;98.20;;;;;;5031093;28;20019;-83
2022/12/30 01:22:12;;;;;;;172.80;165.38;;;10.20;98.30;;;;;;5013637;28;20491;-83
2022/12/30 01:24:38;;;;;;;168.43;161.18;;;10.20;98.30;;;;;;5013733;28;20395;-82
2022/12/30 01:27:04;;;;;;;171.48;164.18;;;10.20;98.40;;;;;;5030374;28;20064;-83
2022/12/30 01:29:34;;;;;;;;;;;10.20;98.40;;;;;;5030498;28;20041;-82
2022/12/30 01:32:00;;;;;;;163.75;156.70;;;10.20;98.40;;;;;;5029663;28;19916;-82
2022/12/30 01:34:26;;;;;;;;;;;10.20;98.30;;;;;;5013582;28;20075;-82
2022/12/30 01:36:52;;;;;;;166.25;159.10;;;10.20;98.30;;;;;;5013078;28;19984;-82
2022/12/30 01:39:18;;;;;;;160.63;153.73;;;10.30;98.30;;;;;;5031041;28;20025;-82
2022/12/30 01:41:43;;;;;;;168.60;161.35;;;10.20;98.30;;;;;;5029294;28;20121;-82
2022/12/30 01:44:40;;;;;;;160.63;153.73;;;10.30;98.40;;;;;;5013047;28;20124;-82
2022/12/30 01:47:08;;;;;;;157.13;150.30;;;10.30;98.40;;;;;;5029246;28;20367;-82
2022/12/30 01:49:39;;;;;;;147.38;141.00;;;10.30;98.40;;;;;;5033993;28;20030;-82
2022/12/30 01:52:05;;;;;;;156.02;149.23;;;10.40;98.40;;;;;;5033782;28;20033;-82
2022/12/30 01:54:33;;;;;;;149.82;143.43;;;10.40;98.40;;;;;;4995968;28;20049;-82
2022/12/30 01:56:59;;;;;;;156.35;149.68;;;10.50;98.50;;;;;;5028711;28;20514;-83
2022/12/30 01:59:27;;;;;;;149.25;142.80;;;10.50;98.50;;;;;;5012512;28;20056;-82
2022/12/30 02:01:54;;;;;;;151.55;145.05;;;10.50;98.40;;;;;;5012818;28;20441;-82
2022/12/30 02:04:27;;;;;;;161.88;154.95;;;10.60;98.50;;;;;;5027996;28;20033;-82
2022/12/30 02:07:05;;;;;;;163.23;156.23;;;10.60;98.40;;;;;;5028480;28;20385;-82
2022/12/30 02:09:32;;;;;;;151.90;145.35;;;10.60;98.40;;;;;;5028579;28;20049;-82
2022/12/30 02:11:59;;;;;;;161.50;154.60;;;10.60;98.40;;;;;;5011863;28;20041;-82
2022/12/30 02:14:27;;;;;;;154.85;148.15;;;10.60;98.40;;;;;;5012086;28;20029;-82
2022/12/30 02:17:22;;;;;;;161.88;154.88;;;10.70;98.40;;;;;;5029670;28;20429;-83
2022/12/30 02:20:07;;;;;;;156.18;149.48;;;10.70;98.40;;;;;;5028427;28;20022;-82
2022/12/30 02:22:48;;;;;;;159.30;152.40;;;10.70;98.50;;;;;;5028274;28;20017;-83
2022/12/30 02:25:35;;;;;;;159.30;152.43;;;10.70;98.40;;;;;;5028121;28;20037;-82
2022/12/30 02:28:29;;;;;;;165.98;158.88;;;10.70;98.40;;;;;;5028657;28;20079;-82
2022/12/30 02:31:21;;;;;;;166.13;158.95;;;10.70;98.40;;;;;;5028178;28;20458;-82
2022/12/30 02:34:09;;;;;;;165.68;158.48;;;10.70;98.40;;;;;;5027950;28;20074;-82
2022/12/30 02:36:37;;;;;;;;;;;10.70;98.40;;;;;;5029941;28;20033;-82
2022/12/30 02:39:31;;;;;;;169.57;162.27;;;10.70;98.40;;;;;;5028152;28;20007;-82
2022/12/30 02:45:29;;;;;;;168.50;161.32;;;10.70;98.50;;;;;;5019057;28;20088;-82
2022/12/30 02:48:01;;;;;;;163.60;156.52;;;10.70;98.50;;;;;;5019608;28;20087;-82
2022/12/30 02:53:18;;;;;;;171.48;164.18;;;10.70;98.60;;;;;;5029410;28;20036;-82
2022/12/30 02:55:44;;;;;;;166.60;159.48;;;10.80;98.60;;;;;;5027313;28;20130;-82
2022/12/30 02:58:11;;;;;;;166.10;158.93;;;10.80;98.50;;;;;;4994752;28;20053;-82
2022/12/30 03:03:59;;;;;;;160.05;153.10;;;10.90;98.50;;;;;;5028842;28;20032;-82
2022/12/30 03:06:37;;;;;;;171.27;163.98;;;10.90;98.50;;;;;;5029150;28;20033;-81
2022/12/30 03:09:09;;;;;;;165.60;158.50;;;10.90;98.50;;;;;;5027336;28;20512;-82
2022/12/30 03:12:09;;;;;;;160.80;153.90;;;10.90;98.50;;;;;;5028588;28;20477;-82
2022/12/30 03:14:59;;;;;;;158.45;151.60;;;11.00;98.50;;;;;;5028607;28;20029;-82
2022/12/30 03:17:32;;;;;;;155.27;148.65;;;11.00;98.50;;;;;;5015558;28;20081;-82
2022/12/30 03:20:04;;;;;;;155.43;148.68;;;11.00;98.50;;;;;;5027305;28;20061;-81
2022/12/30 03:28:06;;;;;;;161.05;154.18;;;11.10;98.50;;;;;;5028504;28;20091;-82
2022/12/30 03:30:36;;;;;;;162.27;155.35;;;11.20;98.50;;;;;;5028509;28;20014;-81
2022/12/30 03:33:02;;;;;;;152.52;146.02;;;11.20;98.60;;;;;;5026910;28;20029;-81
2022/12/30 03:35:32;;;;;;;153.82;147.32;;;11.20;98.60;;;;;;5010577;28;20439;-82
2022/12/30 03:37:59;;;;;;;153.98;147.43;;;11.20;98.60;;;;;;5026973;28;20037;-82
2022/12/30 03:40:40;;;;;;;148.65;142.30;;;11.30;98.60;;;;;;4994098;28;20037;-82
2022/12/30 03:43:07;;;;;;;144.00;137.90;;;11.20;98.60;;;;;;5027028;28;20033;-82
2022/12/30 03:45:33;;;;;;;145.98;139.77;;;11.30;98.60;;;;;;5010280;28;20398;-82
2022/12/30 03:47:59;;;;;;;146.43;140.23;;;11.30;98.70;;;;;;4994057;28;20055;-82
2022/12/30 03:50:25;;;;;;;142.65;136.65;;;11.40;98.70;;;;;;5027004;28;20045;-82
2022/12/30 03:52:51;;;;;;;137.55;131.75;;;11.40;98.70;;;;;;5026776;28;20032;-82
2022/12/30 03:55:16;;;;;;;138.75;132.85;;;11.50;98.70;;;;;;5026495;28;20054;-82
2022/12/30 03:57:42;;;;;;;150.13;143.73;;;11.50;98.70;;;;;;5010247;28;20414;-82
2022/12/30 04:00:08;;;;;;;135.63;129.82;;;11.50;98.60;;;;;;4993790;28;20032;-82
2022/12/30 04:02:35;;;;;;;141.00;135.00;;;11.50;98.60;;;;;;5027675;28;20061;-82
2022/12/30 04:05:01;;;;;;;136.00;130.20;;;11.50;98.60;;;;;;5010060;28;20041;-82
2022/12/30 04:07:27;;;;;;;147.55;141.25;;;11.50;98.60;;;;;;5026709;28;20026;-82
2022/12/30 04:09:53;;;;;;;151.95;145.45;;;11.50;98.60;;;;;;5010024;28;20037;-82
2022/12/30 04:12:19;;;;;;;151.38;144.95;;;11.50;98.50;;;;;;5009952;28;20241;-82
2022/12/30 04:14:44;;;;;;;144.13;138.02;;;11.50;98.50;;;;;;5026721;28;20665;-83
2022/12/30 04:17:10;;;;;;;150.02;143.60;;;11.40;98.60;;;;;;5009711;28;20034;-83
2022/12/30 04:19:36;;;;;;;150.15;143.75;;;11.40;98.60;;;;;;4993313;28;20037;-82
2022/12/30 04:22:01;;;;;;;151.38;144.98;;;11.40;98.60;;;;;;5009918;28;20386;-83
2022/12/30 04:24:27;;;;;;;151.35;144.90;;;11.30;98.60;;;;;;5026673;28;20091;-83
2022/12/30 04:26:53;;;;;;;151.45;144.95;;;11.30;98.60;;;;;;4993626;28;20032;-82
2022/12/30 04:29:18;;;;;;;148.65;142.32;;;11.30;98.60;;;;;;5013518;28;20045;-82
2022/12/30 04:31:44;;;;;;;159.60;152.80;;;11.30;98.60;;;;;;4998021;28;20414;-83
2022/12/30 04:34:12;;;;;;;162.60;155.70;;;11.30;98.60;;;;;;5014034;28;20039;-82
2022/12/30 04:36:38;;;;;;;155.45;148.75;;;11.30;98.60;;;;;;5014037;28;20189;-82
2022/12/30 04:39:04;;;;;;;142.57;136.50;;;11.20;98.60;;;;;;5031708;28;20022;-82
2022/12/30 04:41:30;;;;;;;135.95;130.15;;;11.20;98.70;;;;;;5013599;28;20061;-82
2022/12/30 04:43:55;;;;;;;146.88;140.68;;;11.30;98.80;;;;;;5030038;28;20441;-82
2022/12/30 04:46:21;;;;;;;142.43;136.32;;;11.30;98.70;;;;;;5030229;28;20077;-82
2022/12/30 04:48:47;;;;;;;146.35;140.15;;;11.30;98.70;;;;;;4997254;28;20428;-82
2022/12/30 04:51:13;;;;;;;145.20;139.10;;;11.40;98.70;;;;;;4997168;28;20129;-82
2022/12/30 04:53:38;;;;;;;141.30;135.30;;;11.40;98.70;;;;;;4996895;28;20041;-82
2022/12/30 04:56:04;;;;;;;145.40;139.20;;;11.40;98.70;;;;;;5013414;28;20033;-82
2022/12/30 04:58:30;;;;;;;145.43;139.23;;;11.40;98.60;;;;;;5029707;28;20523;-82
2022/12/30 05:00:56;;;;;;;143.25;137.05;;;11.30;98.80;;;;;;5038129;28;20021;-82
2022/12/30 05:03:22;;;;;;;151.13;144.73;;;11.30;98.60;;;;;;5030114;28;20037;-82
2022/12/30 05:05:47;;;;;;;152.98;146.57;;;11.30;98.60;;;;;;5031031;28;20083;-82
2022/12/30 05:08:13;;;;;;;154.07;147.68;;;11.30;98.60;;;;;;5030045;28;20601;-82
2022/12/30 05:10:40;;;;;;;156.82;150.23;;;11.30;98.60;;;;;;5013307;28;20543;-82
2022/12/30 05:13:05;;;;;;;;;;;11.20;98.60;;;;;;4997345;28;20490;-82
2022/12/30 05:15:32;;;;;;;150.63;144.20;;;11.20;98.60;;;;;;5012924;28;19967;-82
2022/12/30 05:17:58;;;;;;;157.20;150.60;;;11.20;98.50;;;;;;5029477;28;20448;-81
2022/12/30 05:20:24;;;;;;;152.68;146.10;;;11.20;98.60;;;;;;5029387;28;20049;-82
2022/12/30 05:22:49;;;;;;;156.63;150.02;;;11.10;98.60;;;;;;5029528;28;20037;-83
2022/12/30 05:28:00;;;;;;;131.13;125.68;;;11.10;98.60;;;;;;5031013;28;20447;-82
2022/12/30 05:30:26;;;;;;;125.03;119.93;;;11.10;98.70;;;;;;5012844;28;20124;-82
2022/12/30 05:32:52;;;;;;;121.10;116.20;;;11.10;98.70;;;;;;5012791;28;20037;-82
2022/12/30 05:35:18;;;;;;;117.38;112.68;;;11.10;98.70;;;;;;5029671;28;20029;-82
2022/12/30 05:37:43;;;;;;;123.80;118.70;;;11.10;98.70;;;;;;4996440;28;20080;-82
2022/12/30 05:40:10;;;;;;;126.53;121.38;;;11.10;98.70;;;;;;5011779;28;20036;-82
2022/12/30 05:42:36;;;;;;;126.88;121.68;;;11.00;98.60;;;;;;5029053;28;20021;-82
2022/12/30 05:45:03;;;;;;;127.65;122.38;;;11.10;98.60;;;;;;5030426;28;20032;-82
2022/12/30 05:47:29;;;;;;;132.00;126.55;;;11.10;98.60;;;;;;5012487;28;20045;-82
2022/12/30 05:49:54;;;;;;;137.20;131.57;;;11.00;98.60;;;;;;5012773;28;20021;-72
2022/12/30 05:52:20;;;;;;;132.40;126.90;;;11.00;98.60;;;;;;5030189;28;20034;-82
2022/12/30 05:54:46;;;;;;;133.38;127.88;;;11.00;98.60;;;;;;4995743;28;20397;-81
2022/12/30 05:57:11;;;;;;;138.27;132.55;;;11.00;98.90;;;;;;5012142;28;20033;-82
2022/12/30 05:59:37;;;;;;;129.00;123.70;;;11.00;98.70;;;;;;5028453;28;20029;-82
2022/12/30 06:02:03;;;;;;;130.13;124.75;;;11.00;98.70;;;;;;5028589;28;20036;-81
2022/12/30 06:04:29;;;;;;;135.77;130.18;;;11.00;98.70;;;;;;5012247;28;20030;-81
2022/12/30 06:06:55;;;;;;;132.50;127.00;;;11.00;98.70;;;;;;5028951;28;20081;-82
2022/12/30 06:09:21;;;;;;;136.85;131.18;;;11.00;98.70;;;;;;5028638;28;20040;-81
2022/12/30 06:11:47;;;;;;;135.32;129.75;;;11.00;98.70;;;;;;5028725;28;20072;-81
2022/12/30 06:14:15;;;;;;;139.32;133.52;;;10.90;98.70;;;;;;5028420;28;20033;-82
2022/12/30 06:16:41;;;;;;;142.10;136.15;;;11.00;98.70;;;;;;5012056;28;20560;-82
2022/12/30 06:19:07;;;;;;;135.68;130.05;;;10.90;98.60;;;;;;5028442;28;20041;-82
2022/12/30 06:21:34;;;;;;;136.13;130.48;;;10.90;98.70;;;;;;5011996;28;20032;-82
2022/12/30 06:23:59;;;;;;;;;;;10.90;98.70;;;;;;5028588;28;20516;-82
2022/12/30 06:26:25;;;;;;;119.43;114.57;;;10.90;98.70;;;;;;5029817;28;19909;-82
2022/12/30 06:28:51;;;;;;;113.75;109.15;;;10.90;98.70;;;;;;5012037;28;20029;-82
2022/12/30 06:31:16;;;;;;;115.20;110.53;;;10.90;98.70;;;;;;5028256;28;20172;-82
2022/12/30 06:33:42;;;;;;;117.68;112.88;;;10.90;98.70;;;;;;5028341;28;20398;-82
2022/12/30 06:36:09;;;;;;;118.93;114.13;;;10.90;98.70;;;;;;5014569;28;20040;-82
2022/12/30 06:38:35;;;;;;;123.18;118.15;;;10.90;98.70;;;;;;5030062;28;20033;-82
2022/12/30 06:41:01;;;;;;;128.25;123.00;;;10.90;98.70;;;;;;5011715;28;20025;-82
2022/12/30 06:43:27;;;;;;;132.75;127.30;;;10.90;98.70;;;;;;5011727;28;20030;-82
2022/12/30 06:45:53;;;;;;;131.00;125.60;;;10.90;98.70;;;;;;5011811;28;20025;-82
2022/12/30 06:48:19;;;;;;;128.27;122.97;;;10.90;98.70;;;;;;5028511;28;20036;-82
2022/12/30 06:50:45;;;;;;;122.38;117.35;;;10.90;98.70;;;;;;4995427;28;20162;-82
2022/12/30 06:53:11;;;;;;;126.63;121.43;;;10.80;98.70;;;;;;5028047;28;20087;-82
2022/12/30 06:55:37;;;;;;;118.72;113.88;;;10.90;98.70;;;;;;5011170;28;20049;-81
2022/12/30 06:58:04;;;;;;;120.93;116.03;;;10.90;98.70;;;;;;5011353;28;20034;-82
2022/12/30 07:00:31;;;;;;;110.80;106.30;;;10.90;98.70;;;;;;5027698;28;20525;-82
2022/12/30 07:02:56;;;;;;;110.00;105.57;;;10.90;98.70;;;;;;5027601;28;20117;-81
2022/12/30 07:05:22;;;;;;;108.40;104.00;;;10.90;98.80;;;;;;5027611;28;20112;-82
2022/12/30 07:07:48;;;;;;;111.65;107.10;;;10.90;98.70;;;;;;5027647;28;20033;-82
2022/12/30 07:10:13;;;;;;;105.50;101.30;;;10.90;98.70;;;;;;5028665;28;20041;-82
2022/12/30 07:12:39;;;;;;;111.43;106.90;;;10.90;98.70;;;;;;5011010;28;20045;-81
2022/12/30 07:15:06;;;;;;;108.55;104.10;;;10.90;98.70;;;;;;5010881;28;20577;-82
2022/12/30 07:17:31;;;;;;;112.82;108.15;;;10.90;98.70;;;;;;5027206;28;20442;-82
2022/12/30 07:19:57;;;;;;;113.93;109.22;;;10.90;98.70;;;;;;5028499;28;20063;-82
2022/12/30 07:22:23;;;;;;;119.82;114.93;;;10.90;98.70;;;;;;4994880;28;20033;-82
2022/12/30 07:24:49;;;;;;;121.00;116.00;;;10.90;98.70;;;;;;5027215;28;20052;-82
2022/12/30 07:27:14;;;;;;;115.53;110.72;;;10.80;98.70;;;;;;5010843;28;20041;-81
2022/12/30 07:29:40;;;;;;;131.45;125.97;;;10.80;98.90;;;;;;5026580;28;20413;-82
2022/12/30 07:32:07;;;;;;;125.25;120.05;;;10.80;98.80;;;;;;5026686;28;20069;-83
2022/12/30 07:34:39;;;;;;;120.13;115.13;;;10.80;98.80;;;;;;5010902;28;20063;-82
2022/12/30 07:37:05;;;;;;;116.97;112.22;;;10.80;98.80;;;;;;5027336;28;20394;-82
2022/12/30 07:39:31;;;;;;;111.07;106.57;;;10.90;98.80;;;;;;5010607;28;20025;-82
2022/12/30 07:41:57;;;;;;;110.47;105.97;;;10.90;98.90;;;;;;5010874;28;20478;-82
2022/12/30 07:44:23;;;;;;;117.40;112.60;;;11.00;99.00;;;;;;5026670;28;20025;-82
2022/12/30 07:46:49;;;;;;;121.80;116.80;;;11.00;98.80;;;;;;5010515;28;20037;-82
2022/12/30 07:49:15;;;;;;;122.70;117.70;;;11.00;98.80;;;;;;5010265;28;20034;-81
2022/12/30 07:51:41;;;;;;;123.95;118.75;;;11.00;98.70;;;;;;5026783;28;20509;-82
2022/12/30 07:54:06;;;;;;;120.90;115.90;;;11.10;98.70;;;;;;5010034;28;20045;-80
2022/12/30 07:56:32;;;;;;;120.63;115.63;;;11.10;98.70;;;;;;4994240;28;20470;-81
2022/12/30 07:58:58;;;;;;;118.95;114.05;;;11.10;98.80;;;;;;5026435;28;20037;-81
2022/12/30 08:01:25;;;;;;;113.57;108.88;;;11.10;98.70;;;;;;5026736;28;20109;-81
2022/12/30 08:03:51;;;;;;;115.38;110.60;;;11.10;98.80;;;;;;5026243;28;20025;-81
2022/12/30 08:06:18;;;;;;;113.43;108.72;;;11.10;98.80;;;;;;5010288;28;20030;-81
2022/12/30 08:08:45;;;;;;;115.63;110.82;;;11.20;98.80;;;;;;5026340;28;20025;-77
2022/12/30 08:11:12;;;;;;;119.63;114.72;;;11.20;98.80;;;;;;5026204;28;20394;-81
2022/12/30 08:13:40;;;;;;;119.82;114.85;;;11.20;98.80;;;;;;5011894;28;20385;-81
2022/12/30 08:16:08;;;;;;;115.53;110.72;;;11.30;98.80;;;;;;5029133;28;20053;-81
2022/12/30 08:18:33;;;;;;;117.00;112.10;;;11.30;98.80;;;;;;5009893;28;20509;-81
2022/12/30 08:21:06;;;;;;;120.32;115.22;;;11.30;98.80;;;;;;5027498;28;20037;-81
2022/12/30 08:23:33;;;;;;;124.80;119.53;;;11.30;98.80;;;;;;5027876;28;20055;-81
2022/12/30 08:26:08;;;;;;;147.10;140.93;;;11.30;98.80;;;;;;5026978;28;20037;-82
2022/12/30 08:28:34;;;;;;;147.35;141.15;;;11.30;98.60;;;;;;5027112;28;20246;-81
2022/12/30 08:31:08;;;;;;;148.57;142.27;;;11.20;98.50;;;;;;5026404;28;20041;-81
2022/12/30 08:33:34;;;;;;;139.32;133.25;;;11.10;98.60;;;;;;5026505;28;20033;-82
2022/12/30 08:36:09;;;;;;;141.50;135.30;;;11.00;98.60;;;;;;5010067;28;20029;-82
2022/12/30 08:38:40;;;;;;;131.52;125.82;;;11.00;98.60;;;;;;5027571;28;20068;-77
2022/12/30 08:41:09;;;;;;;129.30;123.70;;;11.00;98.60;;;;;;5027825;28;20039;-81
2022/12/30 08:43:34;;;;;;;134.15;128.50;;;10.90;98.70;;;;;;5029215;28;20029;-82
2022/12/30 08:46:01;;;;;;;137.38;131.48;;;10.90;98.70;;;;;;5026206;28;20029;-82
2022/12/30 08:48:27;;;;;;;135.32;129.52;;;10.90;98.60;;;;;;5026220;28;20030;-82
2022/12/30 08:50:54;;;;;;;136.07;130.18;;;10.80;98.60;;;;;;5009853;28;20040;-82
2022/12/30 08:53:19;;;;;;;135.20;129.30;;;10.80;98.60;;;;;;5026164;28;20041;-81
2022/12/30 08:55:45;;;;;;;134.50;128.80;;;10.80;98.60;;;;;;5026190;28;20049;-82
2022/12/30 08:58:11;;;;;;;124.97;119.57;;;10.70;98.60;;;;;;5026151;28;20053;-82
2022/12/30 09:00:37;;;;;;;128.60;123.05;;;10.70;98.60;;;;;;5009895;28;20445;-81
2022/12/30 09:03:03;;;;;;;125.65;120.25;;;10.60;98.60;;;;;;5026007;28;20030;-81
2022/12/30 09:05:31;;;;;;;127.85;122.35;;;10.60;98.60;;;;;;5009379;28;20061;-80
2022/12/30 09:07:57;;;;;;;125.22;119.82;;;10.50;98.50;;;;;;5025925;28;20037;-81
2022/12/30 09:10:22;;;;;;;129.98;124.38;;;10.50;98.60;;;;;;5025745;28;20493;-81
2022/12/30 09:12:48;;;;;;;120.82;115.60;;;10.40;98.60;;;;;;5009509;28;20045;-81
2022/12/30 09:15:14;;;;;;;122.90;117.60;;;10.40;98.60;;;;;;5028696;28;20542;-81
2022/12/30 09:17:40;;;;;;;121.55;116.38;;;10.40;98.60;;;;;;5030173;28;20024;-81
2022/12/30 09:20:06;;;;;;;121.65;116.55;;;10.40;98.60;;;;;;5013503;28;20036;-81
2022/12/30 09:22:31;;;;;;;117.55;112.55;;;10.40;98.60;;;;;;4996630;28;20520;-80
2022/12/30 09:24:57;;;;;;;119.07;114.07;;;10.40;98.60;;;;;;4997012;28;20344;-82
2022/12/30 09:27:23;;;;;;;115.43;110.63;;;10.40;98.60;;;;;;4996902;28;20422;-82
2022/12/30 09:29:49;;;;;;;;;;;10.40;98.60;;;;;;4997451;28;20038;-82
2022/12/30 09:32:15;;;;;;;113.20;108.40;;;10.40;98.70;;;;;;5012896;28;19932;-71
2022/12/30 09:34:41;;;;;;;119.88;114.80;;;10.50;98.60;;;;;;5031394;28;20104;-81
2022/12/30 09:37:07;;;;;;;;;;;10.50;98.60;;;;;;5015816;28;20482;-82
2022/12/30 09:39:33;;;;;;;121.28;116.07;;;10.50;98.60;;;;;;5029550;28;19938;-82
2022/12/30 09:45:06;;;;;;;128.80;123.30;;;10.50;98.60;;;;;;5029591;28;20109;-82
2022/12/30 09:47:43;;;;;;;123.72;118.43;;;10.40;98.50;;;;;;5029562;28;20029;-82
2022/12/30 09:50:26;;;;;;;119.50;114.30;;;10.40;98.50;;;;;;5034132;28;20371;-81
2022/12/30 09:53:01;;;;;;;118.93;113.93;;;10.40;98.60;;;;;;5033508;28;20036;-82
2022/12/30 09:55:53;;;;;;;112.03;107.28;;;10.40;98.60;;;;;;5029917;28;20045;-82
2022/12/30 09:58:31;;;;;;;101.50;97.20;;;10.40;98.60;;;;;;5028632;28;20033;-80
2022/12/30 10:01:05;;;;;;;88.15;84.55;;;10.40;98.60;;;;;;5029994;28;20540;-81
2022/12/30 10:03:31;;;;;;;86.78;83.22;;;10.40;98.60;;;;;;5030535;28;20576;-81
2022/12/30 10:06:16;;;;;;;73.75;70.75;;;10.30;98.60;;;;;;5033108;28;20045;-80
2022/12/30 10:09:00;;;;;;;63.38;60.83;;;10.40;98.60;;;;;;5031713;28;20036;-79
2022/12/30 10:11:44;;;;;;;52.95;50.88;;;10.40;98.60;;;;;;5033050;28;20029;-78
2022/12/30 10:14:28;;;;;;;41.33;39.72;;;10.40;98.60;;;;;;5045634;28;20033;-79
2022/12/30 10:17:05;;;;;;;44.40;42.70;;;10.40;98.60;;;;;;5038392;28;20120;-78
2022/12/30 10:19:49;;;;;;;41.75;40.15;;;10.40;98.60;;;;;;5030017;28;20018;-76
2022/12/30 10:22:35;;;;;;;37.78;36.38;;;10.40;98.60;;;;;;5029973;28;20116;-77
2022/12/30 10:25:23;;;;;;;38.25;36.75;;;10.40;98.60;;;;;;5029677;28;20095;-77
2022/12/30 10:27:52;;;;;;;42.00;40.40;;;10.40;98.70;;;;;;5029845;28;20153;-77
2022/12/30 10:30:21;;;;;;;40.78;39.22;;;10.40;98.90;;;;;;5036896;28;20021;-77
2022/12/30 10:33:08;;;;;;;40.42;38.92;;;10.50;98.60;;;;;;5034151;28;20632;-77
2022/12/30 10:35:37;;;;;;;38.03;36.55;;;10.50;98.70;;;;;;5036012;28;20625;-78
2022/12/30 10:38:15;;;;;;;34.55;33.25;;;10.60;98.90;;;;;;5047046;28;20030;-77
2022/12/30 10:41:00;;;;;;;38.17;36.67;;;10.70;99.00;;;;;;5039990;28;20013;-77
2022/12/30 10:43:51;;;;;;;35.10;33.80;;;10.90;99.00;;;;;;5032592;28;20197;-77
2022/12/30 10:46:35;;;;;;;32.55;31.35;;;11.00;98.90;;;;;;5049423;28;20535;-77
2022/12/30 10:49:29;;;;;;;26.73;25.73;;;11.00;98.90;;;;;;5044392;28;20465;-77
2022/12/30 10:51:56;;;;;;;23.60;22.70;;;11.20;99.10;;;;;;5039899;28;20033;-79
2022/12/30 10:54:21;;;;;;;25.23;24.23;;;11.30;99.10;;;;;;5032959;28;20044;-75
2022/12/30 10:56:49;;;;;;;24.90;23.90;;;11.40;98.80;;;;;;5035002;28;20037;-77
2022/12/30 10:59:19;;;;;;;27.33;26.23;;;11.40;98.70;;;;;;5042431;28;20048;-78
2022/12/30 11:01:47;;;;;;;26.88;25.88;;;11.30;98.60;;;;;;5030368;28;20029;-77
2022/12/30 11:04:36;;;;;;;22.85;21.95;;;11.20;98.70;;;;;;5031328;28;20030;-76
2022/12/30 11:07:05;;;;;;;18.58;17.77;;;11.30;98.80;;;;;;5030452;28;20029;-79
2022/12/30 11:09:31;;;;;;;19.10;18.30;;;11.30;98.90;;;;;;5028872;28;20381;-79
2022/12/30 11:14:54;;;;;;;11.60;11.10;;;11.40;98.80;;;;;;5030617;28;20036;-76
2022/12/30 11:17:23;;;;;;;10.50;10.00;;;11.30;98.80;;;;;;5037197;28;20494;-74
2022/12/30 11:20:20;;;;;;;10.30;9.80;;;11.50;99.00;;;;;;5034962;28;20079;-76
2022/12/30 11:22:54;;;;;;;9.55;9.05;;;11.60;99.10;;;;;;5009583;28;20119;-76
2022/12/30 11:25:46;;;;;;;9.35;8.88;;;11.70;98.90;;;;;;5035914;28;20112;-76
2022/12/30 11:28:29;;;;;;;8.23;7.82;;;11.80;99.00;;;;;;5008558;28;20140;-78
2022/12/30 11:31:02;;;;;;;7.32;6.93;;;11.90;99.10;;;;;;5039124;28;20089;-76
2022/12/30 11:33:56;;;;;;;7.07;6.68;;;12.10;99.10;;;;;;5028118;28;20520;-76
2022/12/30 11:36:21;;;;;;;7.60;7.20;;;12.20;99.10;;;;;;5029521;28;20120;-76
2022/12/30 11:38:49;;;;;;;8.15;7.75;;;12.20;98.90;;;;;;5040774;28;20095;-76
2022/12/30 11:41:18;;;;;;;9.02;8.63;;;12.10;98.70;;;;;;5047788;28;20488;-75
2022/12/30 11:43:45;;;;;;;8.18;7.78;;;12.00;98.60;;;;;;5033859;28;20070;-77
2022/12/30 11:46:14;;;;;;;8.23;7.82;;;11.90;98.60;;;;;;5013635;28;20048;-78
2022/12/30 11:48:53;;;;;;;8.68;8.27;;;11.90;98.70;;;;;;5039193;28;20577;-77
2022/12/30 11:51:23;;;;;;;7.80;7.40;;;11.90;98.90;;;;;;5037166;28;20032;-76
2022/12/30 11:54:01;;;;;;;6.50;6.10;;;12.00;98.90;;;;;;5038653;28;20097;-77
2022/12/30 11:56:29;;;;;;;6.60;6.20;;;12.00;98.80;;;;;;5041507;28;20382;-76
2022/12/30 11:58:57;;;;;;;6.55;6.15;;;12.00;98.80;;;;;;5039219;28;20061;-76
2022/12/30 12:01:22;;;;;;;6.85;6.45;;;12.00;98.80;;;;;;5029339;28;20033;-76
2022/12/30 12:03:57;;;;;;;6.47;6.07;;;11.90;98.70;;;;;;5001147;28;20095;-76
2022/12/30 12:06:24;;;;;;;6.65;6.25;;;11.80;98.80;;;;;;5040463;28;20036;-71
2022/12/30 12:09:07;;;;;;;6.28;5.90;;;11.80;98.70;;;;;;5048736;28;20488;-77
2022/12/30 12:11:39;;;;;;;7.30;6.90;;;11.70;98.70;;;;;;5049284;28;20495;-77
2022/12/30 12:14:15;;;;;;;7.20;6.80;;;11.60;98.70;;;;;;5047809;28;20075;-77
2022/12/30 12:16:52;;;;;;;7.28;6.88;;;11.50;98.70;;;;;;5049113;28;20118;-78
2022/12/30 12:19:21;;;;;;;;;;;11.50;98.70;;;;;;5048827;28;20029;-77
2022/12/30 12:21:49;;;;;;;7.43;7.03;;;11.40;98.70;;;;;;5049148;28;19909;-75
2022/12/30 12:24:41;;;;;;;6.68;6.28;;;11.30;98.70;;;;;;5048958;28;20488;-77
2022/12/30 12:27:17;;;;;;;7.10;6.70;;;11.30;98.90;;;;;;5047850;28;20037;-76
2022/12/30 12:29:43;;;;;;;7.47;7.07;;;11.30;98.80;;;;;;5047744;28;20060;-77
2022/12/30 12:32:22;;;;;;;8.00;7.60;;;11.30;98.60;;;;;;5047762;28;20128;-77
2022/12/30 12:35:30;;;;;;;8.20;7.80;;;11.20;98.40;;;;;;5048425;28;20067;-74
2022/12/30 12:38:15;;;;;;;;;;;11.00;98.50;;;;;;5039390;28;20044;-78
2022/12/30 12:41:16;;;;;;;8.07;7.68;;;11.00;98.70;;;;;;5048941;28;19904;-79
2022/12/30 12:44:05;;;;;;;8.32;7.93;;;10.90;98.70;;;;;;5048964;28;20025;-79
2022/12/30 12:46:51;;;;;;;8.38;7.97;;;10.90;98.70;;;;;;5048035;28;20036;-77
2022/12/30 12:49:38;;;;;;;8.70;8.30;;;10.90;98.70;;;;;;5049177;28;20061;-78
2022/12/30 12:52:23;;;;;;;8.85;8.45;;;10.90;98.70;;;;;;5053058;28;20535;-78
2022/12/30 12:55:28;;;;;;;10.18;9.68;;;10.90;98.70;;;;;;5053025;28;20122;-78
2022/12/30 12:58:08;;;;;;;8.60;8.20;;;10.90;98.70;;;;;;5051009;28;20037;-77
2022/12/30 13:01:12;;;;;;;7.95;7.55;;;10.90;98.60;;;;;;5050625;28;20036;-77
2022/12/30 13:03:49;;;;;;;8.27;7.88;;;10.90;98.60;;;;;;5051106;28;20063;-79
2022/12/30 13:06:30;;;;;;;7.53;7.13;;;10.90;98.60;;;;;;5052740;28;20130;-77
2022/12/30 13:09:08;;;;;;;7.53;7.13;;;10.80;98.60;;;;;;5052297;28;20029;-80
2022/12/30 13:11:33;;;;;;;7.68;7.28;;;10.80;98.70;;;;;;5041750;28;20049;-78
2022/12/30 13:14:30;;;;;;;7.45;7.05;;;10.80;98.70;;;;;;5046161;28;20500;-78
2022/12/30 13:17:00;;;;;;;7.53;7.13;;;10.80;98.60;;;;;;5031872;28;20049;-77
2022/12/30 13:19:34;;;;;;;7.43;7.03;;;10.80;98.60;;;;;;5046395;28;20020;-77
2022/12/30 13:22:07;;;;;;;7.28;6.88;;;10.70;98.60;;;;;;5037651;28;20060;-77
2022/12/30 13:24:41;;;;;;;7.53;7.13;;;10.80;98.60;;;;;;5030578;28;20505;-80
2022/12/30 13:27:29;;;;;;;7.05;6.65;;;10.80;98.70;;;;;;5035540;28;20027;-77
2022/12/30 13:29:57;;;;;;;5.43;5.13;;;10.80;98.60;;;;;;5048388;28;20446;-76
2022/12/30 13:32:50;;;;;;;5.70;5.40;;;10.80;98.60;;;;;;5047835;28;20385;-78
2022/12/30 13:35:53;;;;;;;6.60;6.20;;;10.70;98.50;;;;;;5050519;28;20025;-77